Time;durP1;ratioP1;P1;durP2;ratioP2;P2;SDS_P1;SDS_P2;PMS_P1;PMS_P2;Temp;Humidity;BMP_temperature;BMP_pressure;BME280_temperature;BME280_humidity;BME280_pressure;Samples;Min_cycle;Max_cycle;Signal;HPM_P1;HPM_P2
2022/04/04 01:54:25;;;;;;;12.30;7.30;;;;;;;-0.24;50.25;99782.91;106314;1261;138626;-72
2022/04/04 01:56:57;;;;;;;14.80;7.60;;;;;;;-0.30;50.25;99781.38;106287;1271;108616;-72
2022/04/04 01:59:29;;;;;;;12.60;7.00;;;;;;;-0.34;50.68;99775.21;106197;1271;137748;-73
2022/04/04 02:02:01;;;;;;;12.50;7.30;;;;;;;-0.36;50.30;99771.08;106281;1274;97927;-73
2022/04/04 02:04:33;;;;;;;11.40;7.20;;;;;;;-0.40;50.36;99764.58;106171;1271;137804;-73
2022/04/04 02:07:07;;;;;;;12.80;7.70;;;;;;;-0.44;50.37;99764.55;106251;1271;108869;-73
2022/04/04 02:09:40;;;;;;;14.40;7.60;;;;;;;-0.45;50.23;99762.67;106718;1271;107919;-72
2022/04/04 02:12:12;;;;;;;13.00;7.70;;;;;;;-0.48;50.20;99757.20;106247;1269;137646;-73
2022/04/04 02:14:44;;;;;;;13.60;7.90;;;;;;;-0.49;50.34;99758.91;106297;1273;97928;-73
2022/04/04 02:17:16;;;;;;;13.10;7.80;;;;;;;-0.50;50.30;99760.27;106221;1271;137726;-73
2022/04/04 02:19:48;;;;;;;15.20;7.70;;;;;;;-0.52;50.26;99758.90;106290;1274;109481;-74
2022/04/04 02:22:20;;;;;;;10.70;7.40;;;;;;;-0.52;50.44;99759.92;106113;1274;137927;-71
2022/04/04 02:24:53;;;;;;;12.00;7.30;;;;;;;-0.52;50.06;99759.08;106321;1271;97842;-74
2022/04/04 02:27:25;;;;;;;13.60;8.00;;;;;;;-0.53;50.26;99758.55;106632;1271;97825;-73
2022/04/04 02:29:58;;;;;;;14.90;7.90;;;;;;;-0.54;50.16;99749.30;106288;1271;137573;-73
2022/04/04 02:32:35;;;;;;;15.20;7.30;;;;;;;-0.53;50.00;99750.54;106282;1274;106557;-71
2022/04/04 02:35:10;;;;;;;13.60;7.50;;;;;;;-0.53;50.17;99751.73;106135;1272;138081;-71
2022/04/04 02:37:43;;;;;;;15.80;7.40;;;;;;;-0.53;49.90;99748.14;107833;1271;96248;-72
2022/04/04 02:40:15;;;;;;;11.90;7.40;;;;;;;-0.52;50.38;99747.80;107654;1271;137663;-71
2022/04/04 02:42:47;;;;;;;12.00;7.80;;;;;;;-0.52;50.09;99739.95;106302;1274;111000;-72
2022/04/04 02:45:19;;;;;;;12.40;7.30;;;;;;;-0.51;50.14;99741.31;106279;1271;108255;-73
2022/04/04 02:47:51;;;;;;;13.00;6.70;;;;;;;-0.53;50.34;99740.63;106144;1271;137824;-72
2022/04/04 02:50:24;;;;;;;13.80;8.10;;;;;;;-0.55;50.05;99730.69;106258;1271;97861;-74
2022/04/04 02:52:56;;;;;;;15.00;7.80;;;;;;;-0.55;50.34;99732.56;106148;1271;137705;-72
2022/04/04 02:58:17;;;;;;;11.60;6.90;;;;;;;-0.61;50.40;99728.45;106140;1273;138109;-72
2022/04/04 03:00:49;;;;;;;11.00;6.80;;;;;;;-0.63;50.41;99722.81;106195;1273;108837;-72
2022/04/04 03:03:21;;;;;;;11.70;7.20;;;;;;;-0.65;50.53;99719.22;106154;1274;97814;-73
2022/04/04 03:05:54;;;;;;;12.50;7.20;;;;;;;-0.67;50.67;99718.88;106138;1273;137670;-72
2022/04/04 03:08:26;;;;;;;13.50;7.10;;;;;;;-0.66;50.91;99722.63;106255;1274;112129;-73
2022/04/04 03:10:58;;;;;;;12.60;7.50;;;;;;;-0.66;50.98;99724.85;106114;1273;137862;-72
2022/04/04 03:13:29;;;;;;;14.20;7.50;;;;;;;-0.66;51.15;99724.17;106205;1273;108535;-72
2022/04/04 03:16:01;;;;;;;12.60;7.40;;;;;;;-0.66;50.94;99720.41;106214;1273;97963;-73
2022/04/04 03:18:35;;;;;;;11.80;7.20;;;;;;;-0.66;50.94;99718.71;106084;1273;137364;-72
2022/04/04 03:21:07;;;;;;;14.10;7.60;;;;;;;-0.64;51.03;99718.36;106492;1273;110332;-72
2022/04/04 03:23:40;;;;;;;12.90;7.30;;;;;;;-0.65;51.28;99717.52;106196;1273;137816;-72
2022/04/04 03:26:13;;;;;;;14.30;7.60;;;;;;;-0.65;51.45;99720.59;106308;1272;108229;-73
2022/04/04 03:28:46;;;;;;;13.30;8.10;;;;;;;-0.66;51.63;99715.12;106113;1273;137915;-71
2022/04/04 03:31:18;;;;;;;12.30;7.70;;;;;;;-0.67;51.61;99710.16;106192;1273;97829;-73
2022/04/04 03:33:50;;;;;;;12.80;8.10;;;;;;;-0.68;51.73;99709.66;106232;1271;112084;-72
2022/04/04 03:36:22;;;;;;;14.20;7.70;;;;;;;-0.69;52.20;99704.70;107526;1273;137918;-73
2022/04/04 03:38:54;;;;;;;13.70;7.70;;;;;;;-0.71;51.96;99709.11;107801;1271;107857;-73
2022/04/04 03:41:26;;;;;;;13.90;8.10;;;;;;;-0.71;52.19;99708.45;107721;1273;137788;-73
2022/04/04 03:43:58;;;;;;;15.70;7.80;;;;;;;-0.70;52.21;99707.42;107805;1273;95907;-73
2022/04/04 03:46:30;;;;;;;11.00;7.60;;;;;;;-0.69;52.11;99708.97;107683;1272;137689;-73
2022/04/04 03:49:02;;;;;;;12.50;8.20;;;;;;;-0.69;52.17;99706.91;107090;1273;106229;-73
2022/04/04 03:51:35;;;;;;;13.20;8.20;;;;;;;-0.67;52.35;99706.75;106230;1273;108119;-73
2022/04/04 03:54:07;;;;;;;14.40;8.00;;;;;;;-0.66;52.52;99701.46;106121;1273;138185;-72
2022/04/04 03:56:40;;;;;;;14.20;8.40;;;;;;;-0.63;52.78;99701.14;106222;1273;97139;-73
2022/04/04 03:59:12;;;;;;;14.00;8.00;;;;;;;-0.58;52.92;99704.05;106074;1273;137478;-72
2022/04/04 04:01:44;;;;;;;13.30;8.20;;;;;;;-0.55;52.91;99699.95;106168;1273;108475;-73
2022/04/04 04:04:16;;;;;;;13.40;7.90;;;;;;;-0.51;52.46;99694.52;106025;1273;138410;-72
2022/04/04 04:06:48;;;;;;;13.40;8.40;;;;;;;-0.48;52.66;99691.45;106140;1276;97918;-72
2022/04/04 04:09:20;;;;;;;14.40;8.30;;;;;;;-0.45;52.90;99693.34;106224;1273;97838;-73
2022/04/04 04:11:54;;;;;;;14.40;8.30;;;;;;;-0.42;52.99;99690.77;106111;1273;137514;-72
2022/04/04 04:14:26;;;;;;;15.80;8.00;;;;;;;-0.40;53.01;99689.42;106176;1273;108957;-73
2022/04/04 04:16:59;;;;;;;13.80;7.70;;;;;;;-0.37;52.95;99692.84;106097;1273;138033;-73
2022/04/04 04:22:21;;;;;;;14.10;8.10;;;;;;;-0.29;52.85;99691.34;106122;1273;138115;-73
2022/04/04 04:24:53;;;;;;;13.40;8.10;;;;;;;-0.25;53.43;99690.15;106667;1273;112517;-74
2022/04/04 04:27:26;;;;;;;14.40;8.30;;;;;;;-0.22;53.07;99689.47;106222;1273;107043;-74
2022/04/04 04:29:58;;;;;;;14.20;8.50;;;;;;;-0.18;53.35;99688.28;106059;1273;137896;-74
2022/04/04 04:32:31;;;;;;;14.20;8.30;;;;;;;-0.16;52.83;99686.61;106169;1273;97846;-73
2022/04/04 04:35:02;;;;;;;12.70;7.80;;;;;;;-0.15;53.29;99687.45;106130;1273;138439;-74
2022/04/04 04:37:35;;;;;;;15.30;9.20;;;;;;;-0.15;53.30;99688.98;106164;1273;110721;-73
2022/04/04 04:40:08;;;;;;;16.10;8.70;;;;;;;-0.12;53.36;99684.21;107729;1273;108786;-73
2022/04/04 04:42:40;;;;;;;15.60;9.70;;;;;;;-0.10;53.39;99681.48;107565;1273;138284;-73
2022/04/04 04:45:13;;;;;;;19.10;9.00;;;;;;;-0.07;53.56;99678.41;107706;1273;96092;-74
2022/04/04 04:47:45;;;;;;;12.90;8.80;;;;;;;-0.04;53.63;99674.63;107620;1273;138225;-74
2022/04/04 04:50:20;;;;;;;16.00;8.10;;;;;;;-0.05;53.65;99680.28;106272;1273;111106;-73
2022/04/04 04:52:53;;;;;;;15.30;9.60;;;;;;;-0.04;53.66;99674.64;106142;1273;138200;-73
2022/04/04 04:55:26;;;;;;;21.70;9.80;;;;;;;-0.01;53.86;99676.17;106142;1273;108504;-72
2022/04/04 04:57:58;;;;;;;13.90;8.40;;;;;;;0.03;53.88;99678.08;106153;1273;97853;-73
2022/04/04 05:00:31;;;;;;;14.40;8.70;;;;;;;0.06;54.08;99675.35;106117;1273;138454;-73
2022/04/04 05:05:53;;;;;;;17.50;9.30;;;;;;;0.14;54.07;99678.92;106058;1273;137655;-73
2022/04/04 05:08:25;;;;;;;15.40;9.30;;;;;;;0.16;54.27;99678.58;106103;1273;108443;-73
2022/04/04 05:10:59;;;;;;;15.70;8.90;;;;;;;0.18;54.62;99684.23;106031;1273;137854;-73
2022/04/04 05:13:31;;;;;;;15.20;9.20;;;;;;;0.19;54.39;99681.52;106209;1273;97876;-73
2022/04/04 05:16:09;;;;;;;18.30;9.70;;;;;;;0.21;54.75;99683.74;106201;1273;112029;-73
2022/04/04 05:18:43;;;;;;;17.60;9.00;;;;;;;0.28;54.74;99690.40;106119;1273;139781;-73
2022/04/04 05:21:15;;;;;;;20.20;9.50;;;;;;;0.32;54.82;99689.89;106192;1273;108338;-74
2022/04/04 05:23:47;;;;;;;15.90;8.90;;;;;;;0.35;54.71;99690.23;106153;1273;137906;-72
2022/04/04 05:26:19;;;;;;;18.30;8.60;;;;;;;0.39;55.08;99695.71;106252;1273;97855;-73
2022/04/04 05:28:51;;;;;;;14.60;9.40;;;;;;;0.44;55.41;99697.77;106070;1273;137954;-74
2022/04/04 05:31:23;;;;;;;17.00;9.20;;;;;;;0.49;55.30;99693.48;106199;1273;108960;-73
2022/04/04 05:33:57;;;;;;;15.30;9.60;;;;;;;0.51;55.69;99689.02;106203;1273;108180;-71
2022/04/04 05:36:29;;;;;;;18.30;10.10;;;;;;;0.50;56.67;99685.27;106108;1273;138098;-74
2022/04/04 05:39:01;;;;;;;19.40;10.90;;;;;;;0.48;57.36;99692.79;106201;1273;97822;-72
2022/04/04 05:41:36;;;;;;;15.90;10.30;;;;;;;0.48;58.40;99695.35;106092;1273;138445;-75
2022/04/04 05:44:08;;;;;;;18.80;10.60;;;;;;;0.48;58.78;99692.63;106134;1273;109736;-74
2022/04/04 05:46:41;;;;;;;17.90;10.10;;;;;;;0.56;59.10;99683.89;106087;1273;138686;-74
2022/04/04 05:49:13;;;;;;;18.40;10.10;;;;;;;0.66;59.21;99685.25;106192;1273;97937;-72
2022/04/04 05:51:44;;;;;;;14.80;9.90;;;;;;;0.76;59.51;99684.23;106164;1273;97913;-74
2022/04/04 05:54:32;;;;;;;19.80;10.90;;;;;;;0.81;59.21;99681.98;106300;1268;138485;-74
2022/04/04 05:57:05;;;;;;;15.40;9.60;;;;;;;0.81;59.38;99680.95;106356;1271;109271;-74
2022/04/04 05:59:37;;;;;;;16.20;9.60;;;;;;;0.77;59.49;99678.74;107738;1270;138281;-74
2022/04/04 06:02:10;;;;;;;14.30;9.60;;;;;;;0.74;59.48;99685.25;107887;1270;96117;-74
2022/04/04 06:04:42;;;;;;;17.40;10.60;;;;;;;0.74;59.48;99682.70;106577;1270;138129;-73
2022/04/04 06:07:14;;;;;;;15.40;9.90;;;;;;;0.71;59.80;99680.45;106345;1271;112704;-72
2022/04/04 06:09:46;;;;;;;19.80;11.20;;;;;;;0.69;59.82;99679.42;106387;1271;108988;-74
2022/04/04 06:12:18;;;;;;;16.10;11.10;;;;;;;0.73;59.62;99686.28;106200;1270;139731;-74
2022/04/04 06:14:51;;;;;;;15.30;10.50;;;;;;;0.79;60.15;99678.91;106298;1271;97857;-74
2022/04/04 06:17:23;;;;;;;19.10;10.60;;;;;;;0.86;59.85;99686.23;106281;1271;137214;-73
2022/04/04 06:19:55;;;;;;;17.70;10.60;;;;;;;0.89;60.38;99675.46;106143;1271;111835;-77
2022/04/04 06:22:34;;;;;;;19.50;11.00;;;;;;;0.88;60.93;99684.52;106205;1270;138624;-74
2022/04/04 06:25:08;;;;;;;15.80;10.90;;;;;;;0.82;61.89;99682.84;106654;1270;108035;-75
2022/04/04 06:27:41;;;;;;;16.00;10.20;;;;;;;0.73;62.80;99679.95;107826;1269;95960;-73
2022/04/04 06:30:15;;;;;;;16.30;11.00;;;;;;;0.62;63.40;99682.52;107755;1270;138973;-73
2022/04/04 06:32:47;;;;;;;19.70;12.00;;;;;;;0.53;63.93;99682.88;107688;1271;112490;-74
2022/04/04 06:35:19;;;;;;;18.40;11.50;;;;;;;0.50;63.82;99685.77;107763;1270;140090;-73
2022/04/04 06:37:52;;;;;;;17.70;11.30;;;;;;;0.49;64.20;99685.27;107808;1271;108978;-73
2022/04/04 06:40:24;;;;;;;18.50;11.30;;;;;;;0.48;64.31;99687.31;107715;1270;138483;-74
2022/04/04 06:42:57;;;;;;;17.70;11.00;;;;;;;0.51;64.63;99687.14;107827;1270;96148;-75
2022/04/04 06:45:28;;;;;;;16.20;10.80;;;;;;;0.57;64.35;99678.60;107830;1270;112573;-76
2022/04/04 06:48:00;;;;;;;17.10;10.30;;;;;;;0.59;64.61;99681.85;107741;1270;138268;-76
2022/04/04 06:50:32;;;;;;;18.10;10.30;;;;;;;0.65;64.69;99671.73;107792;1270;107803;-76
2022/04/04 06:53:04;;;;;;;16.90;10.70;;;;;;;0.71;64.61;99673.95;106761;1271;138543;-72
2022/04/04 06:55:46;;;;;;;20.70;10.30;;;;;;;0.74;64.46;99672.42;106243;1271;97881;-73
2022/04/04 06:58:18;;;;;;;17.20;11.00;;;;;;;0.79;64.56;99670.88;106167;1273;140124;-73
2022/04/04 07:00:50;;;;;;;17.40;11.20;;;;;;;0.88;64.15;99669.99;106195;1271;109122;-73
2022/04/04 07:03:23;;;;;;;17.50;11.50;;;;;;;1.01;64.12;99671.33;106147;1270;108158;-73
2022/04/04 07:05:56;;;;;;;17.20;11.30;;;;;;;1.10;63.95;99668.91;106094;1271;138319;-73
2022/04/04 07:08:28;;;;;;;20.70;11.70;;;;;;;1.20;63.47;99665.27;106243;1271;97891;-73
2022/04/04 07:11:00;;;;;;;17.90;11.90;;;;;;;1.29;63.07;99666.96;107786;1271;138378;-73
2022/04/04 07:13:33;;;;;;;21.60;12.40;;;;;;;1.35;62.99;99668.81;107790;1271;109029;-74
2022/04/04 07:16:06;;;;;;;17.50;11.90;;;;;;;1.33;62.81;99666.94;106336;1271;108924;-73
2022/04/04 07:18:44;;;;;;;18.60;12.40;;;;;;;1.37;62.81;99659.04;107669;1271;137409;-75
2022/04/04 07:21:16;;;;;;;20.60;11.50;;;;;;;1.43;62.72;99655.75;107534;1271;95915;-74
2022/04/04 07:23:49;;;;;;;17.00;10.70;;;;;;;1.57;62.55;99652.94;106117;1271;138248;-72
2022/04/04 07:26:22;;;;;;;21.20;11.70;;;;;;;1.68;62.17;99649.80;106147;1272;108363;-74
2022/04/04 07:28:54;;;;;;;16.70;11.40;;;;;;;1.82;62.12;99647.14;106051;1271;138544;-76
2022/04/04 07:31:27;;;;;;;18.60;11.70;;;;;;;1.96;61.81;99641.05;106188;1271;97871;-75
2022/04/04 07:33:59;;;;;;;16.40;11.50;;;;;;;2.09;61.52;99641.13;106281;1271;97848;-74
2022/04/04 07:36:31;;;;;;;17.10;11.70;;;;;;;2.26;61.66;99640.98;106183;1271;138397;-72
2022/04/04 07:39:03;;;;;;;18.20;11.00;;;;;;;2.60;61.26;99632.62;106182;1273;108462;-74
2022/04/04 07:41:36;;;;;;;18.10;11.50;;;;;;;3.33;60.59;99624.75;106176;1271;138581;-74
2022/04/04 07:44:08;;;;;;;18.60;11.90;;;;;;;3.97;58.91;99629.19;106240;1271;97803;-73
2022/04/04 07:46:41;;;;;;;16.50;10.90;;;;;;;4.12;58.25;99625.86;106421;1271;137906;-74
2022/04/04 07:49:13;;;;;;;18.40;11.30;;;;;;;4.25;57.86;99630.29;106298;1271;112276;-75
2022/04/04 07:51:45;;;;;;;19.10;11.20;;;;;;;4.44;57.43;99618.96;106230;1271;109135;-74
2022/04/04 07:54:17;;;;;;;17.50;10.40;;;;;;;4.81;56.64;99612.94;106157;1271;138069;-74
2022/04/04 07:56:53;;;;;;;14.10;10.70;;;;;;;5.35;56.04;99614.46;106832;1271;97818;-73
2022/04/04 07:59:26;;;;;;;14.70;9.70;;;;;;;5.72;54.83;99608.82;106193;1271;137570;-73
2022/04/04 08:01:58;;;;;;;14.30;10.00;;;;;;;6.05;54.59;99606.52;107819;1271;109425;-74
2022/04/04 08:04:30;;;;;;;12.80;8.70;;;;;;;7.47;52.89;99596.27;107798;1271;138924;-72
2022/04/04 08:07:02;;;;;;;13.90;9.10;;;;;;;9.38;50.11;99585.67;107768;1269;108797;-74
2022/04/04 08:09:34;;;;;;;14.80;9.30;;;;;;;11.29;47.71;99575.13;106264;1271;97864;-74
2022/04/04 08:12:08;;;;;;;12.50;9.10;;;;;;;12.72;44.52;99569.56;106154;1271;137819;-75
2022/04/04 08:14:40;;;;;;;13.90;8.80;;;;;;;13.89;43.31;99555.20;107833;1271;112510;-75
2022/04/04 08:17:12;;;;;;;16.00;9.30;;;;;;;14.71;40.43;99554.45;107755;1270;138589;-75
2022/04/04 08:19:44;;;;;;;14.50;8.50;;;;;;;14.68;39.22;99551.48;106288;1271;108891;-76
2022/04/04 08:22:15;;;;;;;14.00;8.80;;;;;;;14.25;37.87;99550.00;106193;1271;97932;-75
2022/04/04 08:24:48;;;;;;;15.30;8.60;;;;;;;14.05;38.11;99559.73;106118;1271;137750;-75
2022/04/04 08:27:22;;;;;;;10.60;8.80;;;;;;;13.73;37.88;99562.73;106207;1273;111711;-75
2022/04/04 08:29:54;;;;;;;13.60;8.40;;;;;;;13.78;37.59;99564.39;107052;1271;139239;-76
2022/04/04 08:32:26;;;;;;;11.40;7.70;;;;;;;14.58;36.81;99559.26;106174;1271;107879;-74
2022/04/04 08:34:58;;;;;;;13.40;9.00;;;;;;;15.49;36.34;99550.85;106008;1273;139248;-74
2022/04/04 08:37:31;;;;;;;10.40;8.00;;;;;;;16.03;34.95;99552.30;106282;1271;97892;-75
2022/04/04 08:40:05;;;;;;;16.40;9.70;;;;;;;15.18;34.61;99547.52;106235;1271;111814;-74
2022/04/04 08:42:37;;;;;;;12.70;8.30;;;;;;;13.91;34.99;99548.95;106767;1271;137892;-75
2022/04/04 08:45:11;;;;;;;11.20;8.60;;;;;;;12.66;36.03;99549.64;106095;1271;108947;-73
2022/04/04 08:47:44;;;;;;;15.90;8.40;;;;;;;11.58;37.30;99548.89;107632;1272;138111;-74
2022/04/04 08:50:18;;;;;;;14.50;9.10;;;;;;;10.84;38.32;99544.64;106645;1271;97825;-74
2022/04/04 08:52:51;;;;;;;14.20;9.30;;;;;;;10.65;39.04;99539.06;107571;1270;138746;-72
2022/04/04 08:55:23;;;;;;;12.40;9.40;;;;;;;10.55;39.48;99536.34;106269;1271;108317;-74
2022/04/04 08:57:56;;;;;;;13.90;8.90;;;;;;;10.58;39.81;99531.87;106246;1274;109400;-75
2022/04/04 09:00:28;;;;;;;13.10;9.20;;;;;;;10.22;39.76;99524.52;106150;1271;138497;-72
2022/04/04 09:03:03;;;;;;;16.20;9.50;;;;;;;9.77;40.50;99529.35;106275;1271;97922;-73
2022/04/04 09:05:50;;;;;;;17.40;9.90;;;;;;;9.47;41.20;99524.98;107737;1269;138107;-74
2022/04/04 09:08:29;;;;;;;12.50;9.50;;;;;;;9.18;41.59;99518.30;106549;1271;108926;-74
2022/04/04 09:11:02;;;;;;;17.50;9.50;;;;;;;8.92;42.13;99514.61;106134;1271;138003;-76
2022/04/04 09:13:34;;;;;;;17.20;10.00;;;;;;;8.68;42.63;99512.19;106221;1271;97838;-70
2022/04/04 09:16:08;;;;;;;11.80;9.50;;;;;;;8.48;43.08;99503.54;106297;1271;97852;-76
2022/04/04 09:18:49;;;;;;;12.10;9.10;;;;;;;8.78;43.43;99495.34;107627;1273;137247;-77
2022/04/04 09:21:33;;;;;;;13.00;8.70;;;;;;;9.46;42.65;99491.17;107774;1271;107441;-74
2022/04/04 09:24:11;;;;;;;14.30;8.40;;;;;;;9.68;42.01;99487.36;107027;1271;137672;-73
2022/04/04 09:26:45;;;;;;;12.70;8.60;;;;;;;9.38;42.01;99487.48;107799;1271;96123;-75
2022/04/04 09:29:19;;;;;;;13.90;8.00;;;;;;;8.99;42.43;99482.06;107356;1273;137668;-75
2022/04/04 09:31:58;;;;;;;12.80;7.70;;;;;;;8.72;42.78;99478.04;106711;1271;112359;-75
2022/04/04 09:34:31;;;;;;;10.30;7.40;;;;;;;8.47;43.27;99482.25;107706;1270;138636;-74
2022/04/04 09:37:03;;;;;;;10.60;7.50;;;;;;;8.34;43.47;99477.17;106654;1271;181767;-74
2022/04/04 09:39:36;;;;;;;13.60;7.50;;;;;;;8.21;43.59;99470.33;107749;1273;96007;-75
2022/04/04 09:42:16;;;;;;;9.40;7.40;;;;;;;7.86;43.80;99465.66;106266;1271;138391;-74
2022/04/04 09:45:03;;;;;;;11.10;7.80;;;;;;;7.58;44.29;99466.90;106603;1271;112226;-75
2022/04/04 09:47:54;;;;;;;16.10;8.40;;;;;;;7.49;44.87;99462.71;107580;1271;138306;-69
2022/04/04 09:50:43;;;;;;;19.50;7.90;;;;;;;7.68;45.15;99450.86;106220;1271;109399;-74
2022/04/04 09:53:17;;;;;;;14.70;7.90;;;;;;;7.98;44.87;99446.38;107661;1271;138493;-74
2022/04/04 09:55:52;;;;;;;15.00;8.70;;;;;;;8.27;44.69;99445.55;107857;1270;95709;-75
2022/04/04 09:58:25;;;;;;;11.50;8.30;;;;;;;8.60;44.47;99444.54;107742;1271;138111;-74
2022/04/04 10:00:59;;;;;;;15.30;8.50;;;;;;;8.71;43.96;99442.73;106715;1270;108507;-74
2022/04/04 10:03:33;;;;;;;14.50;7.80;;;;;;;8.81;43.82;99445.48;107794;1271;107787;-75
2022/04/04 10:06:09;;;;;;;9.60;8.20;;;;;;;8.74;43.28;99431.67;107143;1271;137634;-75
2022/04/04 10:08:44;;;;;;;12.60;8.20;;;;;;;8.80;43.45;99431.66;106386;1271;97853;-74
2022/04/04 10:11:16;;;;;;;11.60;7.80;;;;;;;8.81;43.21;99430.94;107063;1271;138553;-74
2022/04/04 10:13:49;;;;;;;14.10;8.80;;;;;;;8.69;43.48;99422.90;106300;1271;107379;-73
2022/04/04 10:16:23;;;;;;;12.50;8.40;;;;;;;9.19;44.07;99416.77;107712;1273;107809;-74
2022/04/04 10:18:57;;;;;;;12.90;8.10;;;;;;;9.66;42.89;99401.51;107566;1273;137433;-74
2022/04/04 10:21:29;;;;;;;10.90;7.70;;;;;;;9.84;42.64;99406.65;106743;1271;97061;-76
2022/04/04 10:24:02;;;;;;;10.10;7.60;;;;;;;9.95;42.19;99400.43;106094;1271;137788;-79
2022/04/04 10:26:36;;;;;;;11.50;7.00;;;;;;;10.29;41.86;99404.01;107800;1271;108782;-75
2022/04/04 10:29:14;;;;;;;11.90;7.30;;;;;;;10.49;40.89;99389.73;107357;1271;139382;-75
2022/04/04 10:31:49;;;;;;;11.50;6.90;;;;;;;10.36;40.82;99388.94;106422;1271;98392;-75
2022/04/04 10:34:22;;;;;;;10.10;6.90;;;;;;;10.06;40.94;99386.96;106257;1270;97835;-74
2022/04/04 10:37:03;;;;;;;15.30;4.70;;;;;;;9.88;41.02;99389.66;106151;1273;138144;-74
2022/04/04 10:39:44;;;;;;;11.00;6.50;;;;;;;9.77;40.85;99375.55;106147;1273;108925;-75
2022/04/04 10:42:31;;;;;;;8.00;5.40;;;;;;;9.58;41.15;99381.17;106621;1274;137669;-75
2022/04/04 10:45:09;;;;;;;10.10;4.80;;;;;;;9.23;41.46;99381.09;106846;1273;97848;-74
2022/04/04 10:47:43;;;;;;;9.20;3.60;;;;;;;9.04;41.43;99386.69;107651;1273;137900;-75
2022/04/04 10:50:29;;;;;;;6.00;3.40;;;;;;;8.86;41.23;99376.13;106227;1272;112257;-74
2022/04/04 10:53:03;;;;;;;11.90;3.90;;;;;;;8.80;41.45;99383.99;107626;1273;137780;-75
2022/04/04 10:55:55;;;;;;;14.20;3.90;;;;;;;8.92;41.53;99376.06;107790;1271;108712;-74
2022/04/04 10:58:27;;;;;;;8.70;3.60;;;;;;;8.81;41.20;99369.19;107808;1271;96271;-75
2022/04/04 11:01:07;;;;;;;13.30;3.70;;;;;;;8.68;41.13;99367.81;107697;1271;137530;-75
2022/04/04 11:03:41;;;;;;;6.50;3.50;;;;;;;8.60;41.14;99372.61;107701;1271;112919;-75
2022/04/04 11:09:22;;;;;;;7.20;3.40;;;;;;;8.60;40.46;99361.88;106425;1271;108938;-74
2022/04/04 11:12:11;;;;;;;6.60;3.60;;;;;;;8.73;40.66;99355.66;107197;1271;138438;-73
2022/04/04 11:15:02;;;;;;;6.50;3.40;;;;;;;8.82;40.31;99346.48;106237;1271;97821;-75
2022/04/04 11:17:54;;;;;;;7.00;3.10;;;;;;;8.83;39.88;99347.85;106177;1271;137464;-74
2022/04/04 11:20:33;;;;;;;6.50;3.60;;;;;;;8.65;39.66;99347.13;106339;1271;108428;-74
2022/04/04 11:23:09;;;;;;;7.30;2.90;;;;;;;8.52;39.90;99353.20;107713;1270;137960;-74
2022/04/04 11:25:51;;;;;;;7.70;3.40;;;;;;;8.65;40.03;99334.32;107858;1271;97115;-74
2022/04/04 11:28:25;;;;;;;6.50;3.10;;;;;;;8.64;39.84;99335.05;107654;1270;96067;-76
2022/04/04 11:31:08;;;;;;;6.80;4.10;;;;;;;8.57;40.16;99344.67;106186;1271;137116;-76
2022/04/04 11:33:48;;;;;;;11.70;5.40;;;;;;;8.50;40.99;99335.44;106278;1271;108790;-76
2022/04/04 11:36:27;;;;;;;11.10;5.80;;;;;;;8.37;41.55;99339.52;106237;1271;137962;-76
2022/04/04 11:39:07;;;;;;;12.00;5.50;;;;;;;8.33;42.04;99332.06;106311;1271;97841;-76
2022/04/04 11:41:46;;;;;;;7.90;5.20;;;;;;;8.19;42.02;99332.89;107348;1271;138455;-76
2022/04/04 11:44:27;;;;;;;8.30;5.50;;;;;;;8.00;42.45;99326.00;106263;1271;111747;-76
2022/04/04 11:47:08;;;;;;;8.10;5.20;;;;;;;7.80;42.73;99322.56;106214;1271;139213;-83
2022/04/04 11:49:42;;;;;;;9.90;5.30;;;;;;;7.65;43.03;99327.25;107822;1270;108952;-76
2022/04/04 11:52:19;;;;;;;18.40;5.50;;;;;;;7.50;43.10;99326.86;107786;1270;97028;-76
2022/04/04 11:54:51;;;;;;;10.90;5.30;;;;;;;7.46;43.58;99325.98;107673;1271;138416;-76
2022/04/04 11:57:24;;;;;;;9.20;5.00;;;;;;;7.45;43.75;99330.86;107804;1272;111449;-76
2022/04/04 11:59:56;;;;;;;11.10;5.40;;;;;;;7.42;43.82;99311.28;106500;1273;137509;-75
2022/04/04 12:02:32;;;;;;;7.70;5.50;;;;;;;7.39;43.84;99315.73;106164;1273;108869;-77
2022/04/04 12:05:06;;;;;;;9.30;6.40;;;;;;;7.28;43.92;99313.96;106031;1273;137632;-75
2022/04/04 12:07:39;;;;;;;8.20;6.20;;;;;;;7.16;43.99;99304.16;106801;1272;97832;-75
2022/04/04 12:10:16;;;;;;;11.30;6.80;;;;;;;7.18;44.45;99302.23;106183;1271;112485;-75
2022/04/04 12:12:47;;;;;;;;;;;;;;;7.27;44.80;99291.00;107671;1272;137426;-76
2022/04/04 12:15:28;;;;;;;9.50;7.80;;;;;;;7.34;44.76;99286.81;107732;1271;108972;-76
2022/04/04 12:18:01;;;;;;;10.60;7.20;;;;;;;7.41;44.66;99283.13;107620;1273;137494;-76
2022/04/04 12:20:42;;;;;;;11.60;7.30;;;;;;;7.41;44.78;99278.46;107743;1271;95834;-77
2022/04/04 12:26:08;;;;;;;9.70;7.50;;;;;;;7.03;45.37;99273.69;106188;1272;108176;-76
2022/04/04 12:28:41;;;;;;;11.40;7.70;;;;;;;7.03;45.18;99266.77;106105;1273;137667;-75
2022/04/04 12:31:18;;;;;;;10.60;7.10;;;;;;;7.14;45.12;99256.70;106184;1271;97900;-75
2022/04/04 12:34:06;;;;;;;10.20;7.30;;;;;;;7.44;44.93;99256.02;106243;1272;97823;-75
2022/04/04 12:36:40;;;;;;;11.30;7.10;;;;;;;7.81;44.73;99249.15;106062;1273;137448;-75
2022/04/04 12:39:19;;;;;;;11.50;7.40;;;;;;;8.10;44.03;99252.55;106239;1271;108862;-77
2022/04/04 12:41:53;;;;;;;11.40;7.10;;;;;;;8.33;43.92;99239.20;107561;1273;137677;-76
2022/04/04 12:44:28;;;;;;;11.90;7.60;;;;;;;8.27;43.44;99235.64;107078;1273;97833;-77
2022/04/04 12:47:09;;;;;;;8.60;7.20;;;;;;;8.26;43.69;99234.30;105993;1273;137627;-77
2022/04/04 12:49:42;;;;;;;17.40;8.50;;;;;;;8.31;43.37;99232.53;107639;1273;112416;-77
2022/04/04 12:52:33;;;;;;;10.80;8.00;;;;;;;8.31;43.24;99211.42;106161;1273;109915;-77
2022/04/04 12:55:15;;;;;;;16.40;7.80;;;;;;;8.19;43.56;99221.57;106095;1271;137453;-76
2022/04/04 12:57:47;;;;;;;17.80;8.00;;;;;;;8.09;43.52;99213.46;106387;1271;97871;-77
2022/04/04 13:00:29;;;;;;;15.20;7.70;;;;;;;8.07;43.53;99208.52;106140;1271;137448;-76
2022/04/04 13:03:20;;;;;;;10.10;7.00;;;;;;;8.02;43.45;99196.44;107481;1271;112560;-77
2022/04/04 13:05:55;;;;;;;12.30;7.00;;;;;;;8.06;42.73;99202.14;106097;1271;137493;-76
2022/04/04 13:08:29;;;;;;;14.80;8.20;;;;;;;8.16;43.02;99191.02;107791;1271;108909;-77
2022/04/04 13:11:10;;;;;;;11.60;6.90;;;;;;;8.16;42.94;99185.85;107701;1271;138821;-77
2022/04/04 13:14:05;;;;;;;8.80;7.00;;;;;;;8.20;42.85;99200.57;107823;1270;95940;-75
2022/04/04 13:16:39;;;;;;;13.10;8.10;;;;;;;8.24;42.90;99168.02;107873;1271;112440;-76
2022/04/04 13:19:13;;;;;;;11.30;7.80;;;;;;;8.20;42.93;99176.69;107713;1271;138062;-76
2022/04/04 13:21:48;;;;;;;8.80;7.60;;;;;;;8.23;42.74;99161.50;106349;1271;108827;-76
2022/04/04 13:24:21;;;;;;;10.90;7.00;;;;;;;8.23;42.45;99172.58;107720;1270;137757;-76
2022/04/04 13:26:53;;;;;;;14.10;7.40;;;;;;;8.16;42.25;99148.27;106768;1271;98003;-75
2022/04/04 13:29:25;;;;;;;7.90;6.80;;;;;;;8.12;42.22;99144.95;106168;1271;138168;-77
2022/04/04 13:31:57;;;;;;;13.40;7.10;;;;;;;7.99;42.26;99150.16;106288;1271;109544;-76
2022/04/04 13:34:29;;;;;;;10.20;6.80;;;;;;;7.97;42.26;99138.31;106205;1271;109037;-78
2022/04/04 13:37:01;;;;;;;9.20;7.00;;;;;;;7.91;42.46;99140.78;106015;1271;137778;-76
2022/04/04 13:39:33;;;;;;;13.80;7.20;;;;;;;7.86;42.49;99127.11;106181;1271;97820;-76
2022/04/04 13:42:12;;;;;;;11.10;7.20;;;;;;;7.81;42.97;99123.14;106069;1271;137871;-76
2022/04/04 13:44:44;;;;;;;10.00;7.00;;;;;;;7.75;42.88;99124.46;106152;1271;108935;-76
2022/04/04 13:47:16;;;;;;;10.00;6.60;;;;;;;7.58;43.09;99126.48;106090;1271;138623;-76
2022/04/04 13:49:48;;;;;;;9.90;7.10;;;;;;;7.49;43.00;99120.42;106176;1271;97821;-77
2022/04/04 13:52:20;;;;;;;6.90;6.10;;;;;;;7.45;42.94;99116.58;106185;1271;97700;-76
2022/04/04 13:54:52;;;;;;;11.10;7.00;;;;;;;7.42;42.77;99105.27;106016;1271;138302;-76
2022/04/04 13:57:24;;;;;;;10.40;6.40;;;;;;;7.39;42.76;99095.89;106106;1270;109054;-77